sensor_id;sensor_type;location;lat;lon;timestamp;temperature;humidity
23683;DHT22;24897;53.514;10.482;2023-08-06T00:00:27;17.30;99.90
23683;DHT22;24897;53.514;10.482;2023-08-06T00:03:11;17.20;99.90
23683;DHT22;24897;53.514;10.482;2023-08-06T00:05:56;17.30;99.90
23683;DHT22;24897;53.514;10.482;2023-08-06T00:08:40;17.30;99.90
23683;DHT22;24897;53.514;10.482;2023-08-06T00:11:24;17.00;99.90
23683;DHT22;24897;53.514;10.482;2023-08-06T00:14:08;17.00;99.90
23683;DHT22;24897;53.514;10.482;2023-08-06T00:16:52;17.10;99.90
23683;DHT22;24897;53.514;10.482;2023-08-06T00:19:36;17.10;99.90
23683;DHT22;24897;53.514;10.482;2023-08-06T00:22:20;17.10;99.90
23683;DHT22;24897;53.514;10.482;2023-08-06T00:25:05;17.10;99.90
23683;DHT22;24897;53.514;10.482;2023-08-06T00:27:49;17.20;99.90
23683;DHT22;24897;53.514;10.482;2023-08-06T00:30:33;17.20;99.90
23683;DHT22;24897;53.514;10.482;2023-08-06T00:33:17;17.10;99.90
23683;DHT22;24897;53.514;10.482;2023-08-06T00:36:01;17.10;99.90
23683;DHT22;24897;53.514;10.482;2023-08-06T00:38:46;17.10;99.90
23683;DHT22;24897;53.514;10.482;2023-08-06T00:41:29;17.00;99.90
23683;DHT22;24897;53.514;10.482;2023-08-06T00:44:14;16.90;99.90
23683;DHT22;24897;53.514;10.482;2023-08-06T00:46:58;16.90;99.90
23683;DHT22;24897;53.514;10.482;2023-08-06T00:49:42;16.80;99.90
23683;DHT22;24897;53.514;10.482;2023-08-06T00:52:26;16.80;99.90
23683;DHT22;24897;53.514;10.482;2023-08-06T00:55:10;16.70;99.90
23683;DHT22;24897;53.514;10.482;2023-08-06T00:57:55;16.50;99.90
23683;DHT22;24897;53.514;10.482;2023-08-06T01:00:42;16.40;99.90
23683;DHT22;24897;53.514;10.482;2023-08-06T01:03:38;16.40;99.90
23683;DHT22;24897;53.514;10.482;2023-08-06T01:06:41;16.40;99.90
23683;DHT22;24897;53.514;10.482;2023-08-06T01:09:58;16.40;99.90
23683;DHT22;24897;53.514;10.482;2023-08-06T01:16:04;16.40;99.90
23683;DHT22;24897;53.514;10.482;2023-08-06T01:18:52;16.30;99.90
23683;DHT22;24897;53.514;10.482;2023-08-06T01:21:36;16.30;99.90
23683;DHT22;24897;53.514;10.482;2023-08-06T01:24:20;16.30;99.90
23683;DHT22;24897;53.514;10.482;2023-08-06T01:30:12;16.20;99.90
23683;DHT22;24897;53.514;10.482;2023-08-06T01:33:00;16.20;99.90
23683;DHT22;24897;53.514;10.482;2023-08-06T01:35:49;16.10;99.90
23683;DHT22;24897;53.514;10.482;2023-08-06T01:38:33;16.10;99.90
23683;DHT22;24897;53.514;10.482;2023-08-06T01:41:18;16.20;99.90
23683;DHT22;24897;53.514;10.482;2023-08-06T01:44:02;16.00;99.90
23683;DHT22;24897;53.514;10.482;2023-08-06T01:46:46;16.10;99.90
23683;DHT22;24897;53.514;10.482;2023-08-06T01:49:30;16.30;99.90
23683;DHT22;24897;53.514;10.482;2023-08-06T01:52:14;16.00;99.90
23683;DHT22;24897;53.514;10.482;2023-08-06T01:54:58;16.00;99.90
23683;DHT22;24897;53.514;10.482;2023-08-06T01:57:42;16.00;99.90
23683;DHT22;24897;53.514;10.482;2023-08-06T02:00:26;15.90;99.90
23683;DHT22;24897;53.514;10.482;2023-08-06T02:03:12;16.00;99.90
23683;DHT22;24897;53.514;10.482;2023-08-06T02:05:57;15.80;99.90
23683;DHT22;24897;53.514;10.482;2023-08-06T02:08:41;15.80;99.90
23683;DHT22;24897;53.514;10.482;2023-08-06T02:11:25;15.70;99.90
23683;DHT22;24897;53.514;10.482;2023-08-06T02:14:09;15.60;99.90
23683;DHT22;24897;53.514;10.482;2023-08-06T02:16:53;15.60;99.90
23683;DHT22;24897;53.514;10.482;2023-08-06T02:19:37;15.50;99.90
23683;DHT22;24897;53.514;10.482;2023-08-06T02:22:21;15.50;99.90
23683;DHT22;24897;53.514;10.482;2023-08-06T02:25:07;15.50;99.90
23683;DHT22;24897;53.514;10.482;2023-08-06T02:27:51;15.60;99.90
23683;DHT22;24897;53.514;10.482;2023-08-06T02:30:36;15.60;99.90
23683;DHT22;24897;53.514;10.482;2023-08-06T02:33:20;15.70;99.90
23683;DHT22;24897;53.514;10.482;2023-08-06T02:36:04;15.70;99.90
23683;DHT22;24897;53.514;10.482;2023-08-06T02:38:49;15.70;99.90
23683;DHT22;24897;53.514;10.482;2023-08-06T02:41:33;15.70;99.90
23683;DHT22;24897;53.514;10.482;2023-08-06T02:44:17;15.70;99.90
23683;DHT22;24897;53.514;10.482;2023-08-06T02:47:01;15.70;99.90
23683;DHT22;24897;53.514;10.482;2023-08-06T02:49:45;15.70;99.90
23683;DHT22;24897;53.514;10.482;2023-08-06T02:52:33;15.70;99.90
23683;DHT22;24897;53.514;10.482;2023-08-06T02:55:17;15.70;99.90
23683;DHT22;24897;53.514;10.482;2023-08-06T02:58:01;15.70;99.90
23683;DHT22;24897;53.514;10.482;2023-08-06T03:00:45;15.70;99.90
23683;DHT22;24897;53.514;10.482;2023-08-06T03:03:30;15.70;99.90
23683;DHT22;24897;53.514;10.482;2023-08-06T03:06:15;15.70;99.90
23683;DHT22;24897;53.514;10.482;2023-08-06T03:08:59;15.70;99.90
23683;DHT22;24897;53.514;10.482;2023-08-06T03:11:43;15.70;99.90
23683;DHT22;24897;53.514;10.482;2023-08-06T03:14:27;15.70;99.90
23683;DHT22;24897;53.514;10.482;2023-08-06T03:17:11;15.70;99.90
23683;DHT22;24897;53.514;10.482;2023-08-06T03:19:55;15.70;99.90
23683;DHT22;24897;53.514;10.482;2023-08-06T03:22:39;15.70;99.90
23683;DHT22;24897;53.514;10.482;2023-08-06T03:25:23;15.70;99.90
23683;DHT22;24897;53.514;10.482;2023-08-06T03:28:08;15.70;99.90
23683;DHT22;24897;53.514;10.482;2023-08-06T03:31:02;15.60;99.90
23683;DHT22;24897;53.514;10.482;2023-08-06T03:33:46;15.70;99.90
23683;DHT22;24897;53.514;10.482;2023-08-06T03:36:30;15.70;99.90
23683;DHT22;24897;53.514;10.482;2023-08-06T03:39:14;15.70;99.90
23683;DHT22;24897;53.514;10.482;2023-08-06T03:41:58;15.70;99.90
23683;DHT22;24897;53.514;10.482;2023-08-06T03:44:42;15.80;99.90
23683;DHT22;24897;53.514;10.482;2023-08-06T03:47:27;15.70;99.90
23683;DHT22;24897;53.514;10.482;2023-08-06T03:50:11;15.70;99.90
23683;DHT22;24897;53.514;10.482;2023-08-06T03:52:55;15.70;99.90
23683;DHT22;24897;53.514;10.482;2023-08-06T03:55:39;15.70;99.90
23683;DHT22;24897;53.514;10.482;2023-08-06T03:58:23;15.80;99.90
23683;DHT22;24897;53.514;10.482;2023-08-06T04:01:07;15.80;99.90
23683;DHT22;24897;53.514;10.482;2023-08-06T04:03:51;15.80;99.90
23683;DHT22;24897;53.514;10.482;2023-08-06T04:06:35;15.80;99.90
23683;DHT22;24897;53.514;10.482;2023-08-06T04:09:19;15.80;99.90
23683;DHT22;24897;53.514;10.482;2023-08-06T04:12:04;15.90;99.90
23683;DHT22;24897;53.514;10.482;2023-08-06T04:14:50;15.80;99.90
23683;DHT22;24897;53.514;10.482;2023-08-06T04:17:34;15.80;99.90
23683;DHT22;24897;53.514;10.482;2023-08-06T04:20:19;15.90;99.90
23683;DHT22;24897;53.514;10.482;2023-08-06T04:23:06;15.90;99.90
23683;DHT22;24897;53.514;10.482;2023-08-06T04:25:50;15.90;99.90
23683;DHT22;24897;53.514;10.482;2023-08-06T04:28:34;15.90;99.90
23683;DHT22;24897;53.514;10.482;2023-08-06T04:31:18;15.90;99.90
23683;DHT22;24897;53.514;10.482;2023-08-06T04:34:02;15.90;99.90
23683;DHT22;24897;53.514;10.482;2023-08-06T04:36:46;15.90;99.90
23683;DHT22;24897;53.514;10.482;2023-08-06T04:39:30;15.80;99.90
23683;DHT22;24897;53.514;10.482;2023-08-06T04:42:14;15.80;99.90
23683;DHT22;24897;53.514;10.482;2023-08-06T04:44:58;15.80;99.90
23683;DHT22;24897;53.514;10.482;2023-08-06T04:47:43;15.80;99.90
23683;DHT22;24897;53.514;10.482;2023-08-06T04:50:27;15.80;99.90
23683;DHT22;24897;53.514;10.482;2023-08-06T04:53:11;15.80;99.90
23683;DHT22;24897;53.514;10.482;2023-08-06T04:55:55;15.80;99.90
23683;DHT22;24897;53.514;10.482;2023-08-06T04:58:39;15.80;99.90
23683;DHT22;24897;53.514;10.482;2023-08-06T05:01:23;15.90;99.90
23683;DHT22;24897;53.514;10.482;2023-08-06T05:04:07;15.80;99.90
23683;DHT22;24897;53.514;10.482;2023-08-06T05:06:51;15.90;99.90
23683;DHT22;24897;53.514;10.482;2023-08-06T05:09:35;15.80;99.90
23683;DHT22;24897;53.514;10.482;2023-08-06T05:12:19;15.90;99.90
23683;DHT22;24897;53.514;10.482;2023-08-06T05:15:04;15.90;99.90
23683;DHT22;24897;53.514;10.482;2023-08-06T05:17:48;15.90;99.90
23683;DHT22;24897;53.514;10.482;2023-08-06T05:20:36;15.90;99.90
23683;DHT22;24897;53.514;10.482;2023-08-06T05:23:21;15.90;99.90
23683;DHT22;24897;53.514;10.482;2023-08-06T05:26:05;16.00;99.90
23683;DHT22;24897;53.514;10.482;2023-08-06T05:28:49;16.10;99.90
23683;DHT22;24897;53.514;10.482;2023-08-06T05:31:33;16.10;99.90
23683;DHT22;24897;53.514;10.482;2023-08-06T05:34:17;16.20;99.90
23683;DHT22;24897;53.514;10.482;2023-08-06T05:37:02;16.20;99.90
23683;DHT22;24897;53.514;10.482;2023-08-06T05:39:46;16.20;99.90
23683;DHT22;24897;53.514;10.482;2023-08-06T05:42:30;16.20;99.90
23683;DHT22;24897;53.514;10.482;2023-08-06T05:45:14;16.20;99.90
23683;DHT22;24897;53.514;10.482;2023-08-06T05:47:58;16.30;99.90
23683;DHT22;24897;53.514;10.482;2023-08-06T05:50:43;16.30;99.90
23683;DHT22;24897;53.514;10.482;2023-08-06T05:53:27;16.30;99.90
23683;DHT22;24897;53.514;10.482;2023-08-06T05:56:11;16.30;99.90
23683;DHT22;24897;53.514;10.482;2023-08-06T05:58:55;16.30;99.90
23683;DHT22;24897;53.514;10.482;2023-08-06T06:01:39;16.40;99.90
23683;DHT22;24897;53.514;10.482;2023-08-06T06:04:23;16.50;99.90
23683;DHT22;24897;53.514;10.482;2023-08-06T06:07:07;16.70;99.90
23683;DHT22;24897;53.514;10.482;2023-08-06T06:09:51;16.60;99.90
23683;DHT22;24897;53.514;10.482;2023-08-06T06:12:35;16.60;99.90
23683;DHT22;24897;53.514;10.482;2023-08-06T06:15:19;16.60;99.90
23683;DHT22;24897;53.514;10.482;2023-08-06T06:18:03;16.60;99.90
23683;DHT22;24897;53.514;10.482;2023-08-06T06:20:47;16.60;99.90
23683;DHT22;24897;53.514;10.482;2023-08-06T06:23:32;16.70;99.90
23683;DHT22;24897;53.514;10.482;2023-08-06T06:26:16;16.70;99.90
23683;DHT22;24897;53.514;10.482;2023-08-06T06:29:00;16.70;99.90
23683;DHT22;24897;53.514;10.482;2023-08-06T06:31:44;16.80;99.90
23683;DHT22;24897;53.514;10.482;2023-08-06T06:34:28;16.80;99.90
23683;DHT22;24897;53.514;10.482;2023-08-06T06:37:12;16.70;99.90
23683;DHT22;24897;53.514;10.482;2023-08-06T06:39:56;16.80;99.90
23683;DHT22;24897;53.514;10.482;2023-08-06T06:42:40;16.90;99.90
23683;DHT22;24897;53.514;10.482;2023-08-06T06:45:24;16.90;99.90
23683;DHT22;24897;53.514;10.482;2023-08-06T06:48:08;16.90;99.90
23683;DHT22;24897;53.514;10.482;2023-08-06T06:50:52;16.90;99.90
23683;DHT22;24897;53.514;10.482;2023-08-06T06:53:36;16.90;99.90
23683;DHT22;24897;53.514;10.482;2023-08-06T06:56:21;16.90;99.90
23683;DHT22;24897;53.514;10.482;2023-08-06T06:59:05;16.90;99.90
23683;DHT22;24897;53.514;10.482;2023-08-06T07:01:49;17.00;99.90
23683;DHT22;24897;53.514;10.482;2023-08-06T07:04:33;17.00;99.90
23683;DHT22;24897;53.514;10.482;2023-08-06T07:07:17;17.00;99.90
23683;DHT22;24897;53.514;10.482;2023-08-06T07:10:01;17.00;99.90
23683;DHT22;24897;53.514;10.482;2023-08-06T07:12:45;17.00;99.90
23683;DHT22;24897;53.514;10.482;2023-08-06T07:15:30;17.00;99.90
23683;DHT22;24897;53.514;10.482;2023-08-06T07:18:13;17.00;99.90
23683;DHT22;24897;53.514;10.482;2023-08-06T07:20:57;17.90;99.90
23683;DHT22;24897;53.514;10.482;2023-08-06T07:23:42;17.00;99.90
23683;DHT22;24897;53.514;10.482;2023-08-06T07:26:26;17.00;99.90
23683;DHT22;24897;53.514;10.482;2023-08-06T07:29:10;17.00;99.90
23683;DHT22;24897;53.514;10.482;2023-08-06T07:31:54;16.90;99.90
23683;DHT22;24897;53.514;10.482;2023-08-06T07:34:39;16.80;99.90
23683;DHT22;24897;53.514;10.482;2023-08-06T07:37:23;16.70;99.90
23683;DHT22;24897;53.514;10.482;2023-08-06T07:40:07;16.60;99.90
23683;DHT22;24897;53.514;10.482;2023-08-06T07:42:52;16.60;99.90
23683;DHT22;24897;53.514;10.482;2023-08-06T07:45:36;16.60;99.90
23683;DHT22;24897;53.514;10.482;2023-08-06T07:48:21;16.60;99.90
23683;DHT22;24897;53.514;10.482;2023-08-06T07:51:05;16.50;99.90
23683;DHT22;24897;53.514;10.482;2023-08-06T07:53:49;16.50;99.90
23683;DHT22;24897;53.514;10.482;2023-08-06T07:56:33;16.50;99.90
23683;DHT22;24897;53.514;10.482;2023-08-06T07:59:17;16.50;99.90
23683;DHT22;24897;53.514;10.482;2023-08-06T08:02:01;16.40;99.90
23683;DHT22;24897;53.514;10.482;2023-08-06T08:04:45;16.40;99.90
23683;DHT22;24897;53.514;10.482;2023-08-06T08:07:31;16.40;99.90
23683;DHT22;24897;53.514;10.482;2023-08-06T08:10:15;16.40;99.90
23683;DHT22;24897;53.514;10.482;2023-08-06T08:13:00;16.40;99.90
23683;DHT22;24897;53.514;10.482;2023-08-06T08:15:44;16.50;99.90
23683;DHT22;24897;53.514;10.482;2023-08-06T08:18:28;16.50;99.90
23683;DHT22;24897;53.514;10.482;2023-08-06T08:21:13;16.50;99.90
23683;DHT22;24897;53.514;10.482;2023-08-06T08:24:00;16.50;99.90
23683;DHT22;24897;53.514;10.482;2023-08-06T08:26:44;16.60;99.90
23683;DHT22;24897;53.514;10.482;2023-08-06T08:29:28;16.60;99.90
23683;DHT22;24897;53.514;10.482;2023-08-06T08:32:12;16.70;99.90
23683;DHT22;24897;53.514;10.482;2023-08-06T08:34:56;16.70;99.90
23683;DHT22;24897;53.514;10.482;2023-08-06T08:37:40;16.80;99.90
23683;DHT22;24897;53.514;10.482;2023-08-06T08:40:29;16.80;99.90
23683;DHT22;24897;53.514;10.482;2023-08-06T08:43:16;16.80;99.90
23683;DHT22;24897;53.514;10.482;2023-08-06T08:46:01;16.90;99.90
23683;DHT22;24897;53.514;10.482;2023-08-06T08:48:46;17.00;99.90
23683;DHT22;24897;53.514;10.482;2023-08-06T08:51:31;17.00;99.90
23683;DHT22;24897;53.514;10.482;2023-08-06T08:54:16;17.00;99.90
23683;DHT22;24897;53.514;10.482;2023-08-06T08:57:02;17.00;99.90
23683;DHT22;24897;53.514;10.482;2023-08-06T08:59:46;16.90;99.90
23683;DHT22;24897;53.514;10.482;2023-08-06T09:02:32;16.90;99.90
23683;DHT22;24897;53.514;10.482;2023-08-06T09:05:18;16.90;99.90
23683;DHT22;24897;53.514;10.482;2023-08-06T09:08:04;16.90;99.90
23683;DHT22;24897;53.514;10.482;2023-08-06T09:10:49;16.80;99.90
23683;DHT22;24897;53.514;10.482;2023-08-06T09:13:35;16.90;99.90
23683;DHT22;24897;53.514;10.482;2023-08-06T09:16:20;16.90;99.90
23683;DHT22;24897;53.514;10.482;2023-08-06T09:19:12;16.90;99.90
23683;DHT22;24897;53.514;10.482;2023-08-06T09:21:57;16.90;99.90
23683;DHT22;24897;53.514;10.482;2023-08-06T09:24:41;16.90;99.90
23683;DHT22;24897;53.514;10.482;2023-08-06T09:27:26;16.90;99.90
23683;DHT22;24897;53.514;10.482;2023-08-06T09:30:10;17.00;99.90
23683;DHT22;24897;53.514;10.482;2023-08-06T09:32:55;16.90;99.90
23683;DHT22;24897;53.514;10.482;2023-08-06T09:35:38;16.90;99.90
23683;DHT22;24897;53.514;10.482;2023-08-06T09:38:23;16.90;99.90
23683;DHT22;24897;53.514;10.482;2023-08-06T09:41:07;16.90;99.90
23683;DHT22;24897;53.514;10.482;2023-08-06T09:43:52;17.00;99.90
23683;DHT22;24897;53.514;10.482;2023-08-06T09:46:36;17.10;99.90
23683;DHT22;24897;53.514;10.482;2023-08-06T09:49:27;17.20;99.90
23683;DHT22;24897;53.514;10.482;2023-08-06T09:52:13;17.30;99.90
23683;DHT22;24897;53.514;10.482;2023-08-06T09:54:57;17.40;99.90
23683;DHT22;24897;53.514;10.482;2023-08-06T09:57:42;17.30;99.90
23683;DHT22;24897;53.514;10.482;2023-08-06T10:00:27;17.30;99.90
23683;DHT22;24897;53.514;10.482;2023-08-06T10:03:12;17.40;99.90
23683;DHT22;24897;53.514;10.482;2023-08-06T10:05:58;17.40;99.90
23683;DHT22;24897;53.514;10.482;2023-08-06T10:08:42;17.40;99.90
23683;DHT22;24897;53.514;10.482;2023-08-06T10:11:28;17.50;99.90
23683;DHT22;24897;53.514;10.482;2023-08-06T10:14:28;17.50;99.90
23683;DHT22;24897;53.514;10.482;2023-08-06T10:17:14;17.60;99.90
23683;DHT22;24897;53.514;10.482;2023-08-06T10:19:59;17.60;99.90
23683;DHT22;24897;53.514;10.482;2023-08-06T10:22:44;17.70;99.90
23683;DHT22;24897;53.514;10.482;2023-08-06T10:25:33;17.70;99.90
23683;DHT22;24897;53.514;10.482;2023-08-06T10:28:19;16.90;99.90
23683;DHT22;24897;53.514;10.482;2023-08-06T10:31:03;17.70;99.90
23683;DHT22;24897;53.514;10.482;2023-08-06T10:33:49;17.80;99.90
23683;DHT22;24897;53.514;10.482;2023-08-06T10:36:33;17.90;99.90
23683;DHT22;24897;53.514;10.482;2023-08-06T10:39:17;17.90;99.90
23683;DHT22;24897;53.514;10.482;2023-08-06T10:42:01;17.90;99.90
23683;DHT22;24897;53.514;10.482;2023-08-06T10:45:15;17.90;99.90
23683;DHT22;24897;53.514;10.482;2023-08-06T10:48:00;17.80;99.90
23683;DHT22;24897;53.514;10.482;2023-08-06T10:50:44;17.80;99.90
23683;DHT22;24897;53.514;10.482;2023-08-06T10:53:29;17.80;99.90
23683;DHT22;24897;53.514;10.482;2023-08-06T10:56:23;17.80;99.90
23683;DHT22;24897;53.514;10.482;2023-08-06T10:59:09;18.00;99.90
23683;DHT22;24897;53.514;10.482;2023-08-06T11:01:54;17.90;99.90
23683;DHT22;24897;53.514;10.482;2023-08-06T11:04:38;17.90;99.90
23683;DHT22;24897;53.514;10.482;2023-08-06T11:07:23;18.00;99.90
23683;DHT22;24897;53.514;10.482;2023-08-06T11:10:12;17.90;99.90
23683;DHT22;24897;53.514;10.482;2023-08-06T11:13:01;18.00;99.90
23683;DHT22;24897;53.514;10.482;2023-08-06T11:15:45;18.00;99.90
23683;DHT22;24897;53.514;10.482;2023-08-06T11:18:29;18.10;99.90
23683;DHT22;24897;53.514;10.482;2023-08-06T11:21:14;18.10;99.90
23683;DHT22;24897;53.514;10.482;2023-08-06T11:23:58;18.10;99.90
23683;DHT22;24897;53.514;10.482;2023-08-06T11:26:42;18.10;99.90
23683;DHT22;24897;53.514;10.482;2023-08-06T11:29:28;18.20;99.90
23683;DHT22;24897;53.514;10.482;2023-08-06T11:32:12;18.30;99.90
23683;DHT22;24897;53.514;10.482;2023-08-06T11:34:57;18.30;99.90
23683;DHT22;24897;53.514;10.482;2023-08-06T11:37:47;18.40;99.90
23683;DHT22;24897;53.514;10.482;2023-08-06T11:40:35;18.50;99.90
23683;DHT22;24897;53.514;10.482;2023-08-06T11:43:20;19.00;99.90
23683;DHT22;24897;53.514;10.482;2023-08-06T11:46:06;18.70;99.90
23683;DHT22;24897;53.514;10.482;2023-08-06T11:48:57;18.70;99.90
23683;DHT22;24897;53.514;10.482;2023-08-06T11:51:42;18.70;99.90
23683;DHT22;24897;53.514;10.482;2023-08-06T11:54:32;18.80;99.90
23683;DHT22;24897;53.514;10.482;2023-08-06T11:57:18;18.90;99.90
23683;DHT22;24897;53.514;10.482;2023-08-06T12:00:10;18.80;99.90
23683;DHT22;24897;53.514;10.482;2023-08-06T12:02:56;18.80;99.90
23683;DHT22;24897;53.514;10.482;2023-08-06T12:05:40;18.80;99.90
23683;DHT22;24897;53.514;10.482;2023-08-06T12:08:27;18.90;99.90
23683;DHT22;24897;53.514;10.482;2023-08-06T12:11:12;18.90;99.90
23683;DHT22;24897;53.514;10.482;2023-08-06T12:13:56;18.90;99.90
23683;DHT22;24897;53.514;10.482;2023-08-06T12:16:40;19.00;99.90
23683;DHT22;24897;53.514;10.482;2023-08-06T12:19:24;19.00;99.90
23683;DHT22;24897;53.514;10.482;2023-08-06T12:22:10;19.90;99.90
23683;DHT22;24897;53.514;10.482;2023-08-06T12:24:54;18.90;99.90
23683;DHT22;24897;53.514;10.482;2023-08-06T12:27:39;18.90;99.90
23683;DHT22;24897;53.514;10.482;2023-08-06T12:30:23;19.70;99.90
23683;DHT22;24897;53.514;10.482;2023-08-06T12:33:07;19.00;99.90
23683;DHT22;24897;53.514;10.482;2023-08-06T12:35:52;19.00;99.90
23683;DHT22;24897;53.514;10.482;2023-08-06T12:38:38;19.20;99.90
23683;DHT22;24897;53.514;10.482;2023-08-06T12:41:22;19.40;99.90
23683;DHT22;24897;53.514;10.482;2023-08-06T12:44:06;19.40;99.90
23683;DHT22;24897;53.514;10.482;2023-08-06T12:46:51;19.50;99.90
23683;DHT22;24897;53.514;10.482;2023-08-06T12:49:38;20.40;99.90
23683;DHT22;24897;53.514;10.482;2023-08-06T12:52:22;19.30;99.90
23683;DHT22;24897;53.514;10.482;2023-08-06T12:55:07;19.40;99.90
23683;DHT22;24897;53.514;10.482;2023-08-06T12:57:51;19.50;99.90
23683;DHT22;24897;53.514;10.482;2023-08-06T13:00:36;19.50;99.90
23683;DHT22;24897;53.514;10.482;2023-08-06T13:03:20;19.60;99.90
23683;DHT22;24897;53.514;10.482;2023-08-06T13:06:04;19.70;99.90
23683;DHT22;24897;53.514;10.482;2023-08-06T13:08:49;19.70;99.90
23683;DHT22;24897;53.514;10.482;2023-08-06T13:11:33;19.70;99.90
23683;DHT22;24897;53.514;10.482;2023-08-06T13:14:18;19.80;99.90
23683;DHT22;24897;53.514;10.482;2023-08-06T13:17:02;19.90;99.90
23683;DHT22;24897;53.514;10.482;2023-08-06T13:19:46;19.90;99.90
23683;DHT22;24897;53.514;10.482;2023-08-06T13:22:30;19.70;99.90
23683;DHT22;24897;53.514;10.482;2023-08-06T13:25:14;19.00;99.90
23683;DHT22;24897;53.514;10.482;2023-08-06T13:27:59;18.70;99.90
23683;DHT22;24897;53.514;10.482;2023-08-06T13:30:44;18.60;99.90
23683;DHT22;24897;53.514;10.482;2023-08-06T13:33:28;18.60;99.90
23683;DHT22;24897;53.514;10.482;2023-08-06T13:36:12;18.70;99.90
23683;DHT22;24897;53.514;10.482;2023-08-06T13:38:56;18.70;99.90
23683;DHT22;24897;53.514;10.482;2023-08-06T13:41:40;18.70;99.90
23683;DHT22;24897;53.514;10.482;2023-08-06T13:44:25;18.80;99.90
23683;DHT22;24897;53.514;10.482;2023-08-06T13:47:09;18.80;99.90
23683;DHT22;24897;53.514;10.482;2023-08-06T13:49:53;18.80;99.90
23683;DHT22;24897;53.514;10.482;2023-08-06T13:52:37;18.80;99.90
23683;DHT22;24897;53.514;10.482;2023-08-06T13:55:21;18.80;99.90
23683;DHT22;24897;53.514;10.482;2023-08-06T13:58:06;18.80;99.90
23683;DHT22;24897;53.514;10.482;2023-08-06T14:00:51;18.90;99.90
23683;DHT22;24897;53.514;10.482;2023-08-06T14:03:36;18.90;99.90
23683;DHT22;24897;53.514;10.482;2023-08-06T14:06:21;19.00;99.90
23683;DHT22;24897;53.514;10.482;2023-08-06T14:09:05;19.10;99.90
23683;DHT22;24897;53.514;10.482;2023-08-06T14:11:49;19.10;99.90
23683;DHT22;24897;53.514;10.482;2023-08-06T14:14:33;19.20;99.90
23683;DHT22;24897;53.514;10.482;2023-08-06T14:17:17;19.30;99.90
23683;DHT22;24897;53.514;10.482;2023-08-06T14:20:01;19.40;99.90
23683;DHT22;24897;53.514;10.482;2023-08-06T14:22:47;19.40;99.90
23683;DHT22;24897;53.514;10.482;2023-08-06T14:25:31;19.50;99.90
23683;DHT22;24897;53.514;10.482;2023-08-06T14:28:15;19.50;99.90
23683;DHT22;24897;53.514;10.482;2023-08-06T14:30:59;19.50;99.90
23683;DHT22;24897;53.514;10.482;2023-08-06T14:33:44;19.60;99.90
23683;DHT22;24897;53.514;10.482;2023-08-06T14:36:28;19.70;99.90
23683;DHT22;24897;53.514;10.482;2023-08-06T14:39:12;19.70;99.90
23683;DHT22;24897;53.514;10.482;2023-08-06T14:41:56;19.60;99.90
23683;DHT22;24897;53.514;10.482;2023-08-06T14:44:40;19.70;99.90
23683;DHT22;24897;53.514;10.482;2023-08-06T14:47:25;19.70;99.90
23683;DHT22;24897;53.514;10.482;2023-08-06T14:50:09;19.80;99.90
23683;DHT22;24897;53.514;10.482;2023-08-06T14:52:53;19.90;99.90
23683;DHT22;24897;53.514;10.482;2023-08-06T14:55:37;19.90;99.90
23683;DHT22;24897;53.514;10.482;2023-08-06T14:58:22;19.90;99.90
23683;DHT22;24897;53.514;10.482;2023-08-06T15:01:06;19.90;99.90
23683;DHT22;24897;53.514;10.482;2023-08-06T15:03:50;19.90;99.90
23683;DHT22;24897;53.514;10.482;2023-08-06T15:06:34;19.90;99.90
23683;DHT22;24897;53.514;10.482;2023-08-06T15:09:18;19.80;99.90
23683;DHT22;24897;53.514;10.482;2023-08-06T15:12:02;19.80;99.90
23683;DHT22;24897;53.514;10.482;2023-08-06T15:14:46;19.80;99.90
23683;DHT22;24897;53.514;10.482;2023-08-06T15:17:30;19.80;99.90
23683;DHT22;24897;53.514;10.482;2023-08-06T15:20:15;19.70;99.90
23683;DHT22;24897;53.514;10.482;2023-08-06T15:22:59;19.60;99.90
23683;DHT22;24897;53.514;10.482;2023-08-06T15:25:43;19.50;99.90
23683;DHT22;24897;53.514;10.482;2023-08-06T15:28:27;19.40;99.90
23683;DHT22;24897;53.514;10.482;2023-08-06T15:31:12;19.40;99.90
23683;DHT22;24897;53.514;10.482;2023-08-06T15:33:56;19.40;99.90
23683;DHT22;24897;53.514;10.482;2023-08-06T15:36:40;19.30;99.90
23683;DHT22;24897;53.514;10.482;2023-08-06T15:39:24;19.20;99.90
23683;DHT22;24897;53.514;10.482;2023-08-06T15:42:08;19.10;99.90
23683;DHT22;24897;53.514;10.482;2023-08-06T15:44:52;19.10;99.90
23683;DHT22;24897;53.514;10.482;2023-08-06T15:47:36;19.10;99.90
23683;DHT22;24897;53.514;10.482;2023-08-06T15:50:25;19.10;99.90
23683;DHT22;24897;53.514;10.482;2023-08-06T15:53:09;19.00;99.90
23683;DHT22;24897;53.514;10.482;2023-08-06T15:55:54;18.90;99.90
23683;DHT22;24897;53.514;10.482;2023-08-06T15:58:38;18.90;99.90
23683;DHT22;24897;53.514;10.482;2023-08-06T16:01:22;18.90;99.90
23683;DHT22;24897;53.514;10.482;2023-08-06T16:04:06;18.90;99.90
23683;DHT22;24897;53.514;10.482;2023-08-06T16:06:50;18.90;99.90
23683;DHT22;24897;53.514;10.482;2023-08-06T16:09:34;18.90;99.90
23683;DHT22;24897;53.514;10.482;2023-08-06T16:12:19;19.00;99.90
23683;DHT22;24897;53.514;10.482;2023-08-06T16:15:04;19.10;99.90
23683;DHT22;24897;53.514;10.482;2023-08-06T16:17:48;19.10;99.90
23683;DHT22;24897;53.514;10.482;2023-08-06T16:20:33;19.10;99.90
23683;DHT22;24897;53.514;10.482;2023-08-06T16:23:17;19.10;99.90
23683;DHT22;24897;53.514;10.482;2023-08-06T16:26:01;19.20;99.90
23683;DHT22;24897;53.514;10.482;2023-08-06T16:28:45;19.30;99.90
23683;DHT22;24897;53.514;10.482;2023-08-06T16:31:30;19.30;99.90
23683;DHT22;24897;53.514;10.482;2023-08-06T16:34:14;19.20;99.90
23683;DHT22;24897;53.514;10.482;2023-08-06T16:36:59;19.10;99.90
23683;DHT22;24897;53.514;10.482;2023-08-06T16:39:43;19.10;99.90
23683;DHT22;24897;53.514;10.482;2023-08-06T16:42:27;19.10;99.90
23683;DHT22;24897;53.514;10.482;2023-08-06T16:45:12;19.10;99.90
23683;DHT22;24897;53.514;10.482;2023-08-06T16:47:56;19.10;99.90
23683;DHT22;24897;53.514;10.482;2023-08-06T16:50:40;19.10;99.90
23683;DHT22;24897;53.514;10.482;2023-08-06T16:53:24;19.00;99.90
23683;DHT22;24897;53.514;10.482;2023-08-06T16:56:10;19.00;99.90
23683;DHT22;24897;53.514;10.482;2023-08-06T16:58:54;19.00;99.90
23683;DHT22;24897;53.514;10.482;2023-08-06T17:01:38;19.00;99.90
23683;DHT22;24897;53.514;10.482;2023-08-06T17:04:24;18.90;99.90
23683;DHT22;24897;53.514;10.482;2023-08-06T17:07:08;18.80;99.90
23683;DHT22;24897;53.514;10.482;2023-08-06T17:09:53;18.90;99.90